Viejas Grade (78) Station Data

Red Flag Warning: No
Fire Weather Zone: 258
SDGE Region: Eastern
Lat/Lon: 32.864/-116.662

Observations

Time Wind Speed/Gust Temp(F) RH Fuel Moist Fuel Temp(F) Dewpt(F) Tmax(F) Tmin(F) Accum Precip 10-min Precip SL Press(mb)
2/27 11:40pm 237 14 G 23 45° 100% - - 45° 47.8° 43.3° - - -
2/27 11:20pm 234 13 G 22 46° 100% - - 46° 47.8° 43.3° - - -
2/27 11:10pm 223 18 G 23 45° 100% - - 45° 47.8° 43.3° - - -
2/27 11:00pm 228 20 G 29 45° 100% - - 45° 47.8° 43.3° - - -
2/27 10:50pm 230 19 G 27 45° 100% - - 45° 47.8° 43.3° - - -
2/27 10:40pm 236 17 G 28 45° 100% - - 45° 47.8° 43.3° - - -
2/27 10:30pm 233 16 G 28 46° 100% - - 46° 47.8° 43.3° - - -
2/27 10:20pm 236 16 G 30 46° 100% - - 46° 47.8° 43.3° - - -
2/27 10:10pm 231 14 G 25 46° 100% - - 46° 47.8° 43.3° - - -
2/27 10:00pm 225 13 G 18 46° 100% - - 46° 47.8° 43.3° - - -
2/27 9:50pm 222 12 G 17 46° 100% - - 46° 47.8° 43.3° - - -
2/27 9:40pm 219 11 G 15 46° 100% - - 46° 47.8° 43.3° - - -
2/27 9:30pm 226 12 G 16 45° 100% - - 45° 47.8° 43.3° - - -
2/27 9:20pm 226 15 G 22 45° 100% - - 45° 47.8° 43.3° - - -
2/27 9:10pm 226 17 G 24 45° 100% - - 45° 47.8° 43.3° - - -
2/27 9:00pm 225 21 G 31 46° 100% - - 45° 47.8° 43.3° - - -
2/27 8:50pm 218 21 G 30 46° 100% - - 46° 47.8° 43.3° - - -
2/27 8:40pm 215 16 G 24 45° 100% - - 45° 47.8° 43.3° - - -
2/27 8:30pm 217 16 G 24 45° 100% - - 45° 47.8° 43.3° - - -
2/27 8:20pm 211 17 G 25 45° 100% - - 45° 47.8° 43.3° - - -
2/27 8:10pm 199 14 G 27 45° 100% - - 45° 47.8° 43.3° - - -
2/27 8:00pm 212 15 G 33 45° 100% - - 45° 47.8° 43.3° - - -
2/27 7:50pm 197 11 G 23 45° 100% - - 45° 47.8° 43.3° - - -
2/27 7:40pm 164 10 G 21 46° 100% - - 45° 47.8° 43.3° - - -
2/27 7:30pm 164 12 G 21 45° 100% - - 45° 47.8° 43.3° - - -
2/27 7:20pm 161 12 G 20 45° 100% - - 45° 47.8° 43.3° - - -
2/27 7:10pm 150 13 G 26 46° 100% - - 46° 47.8° 43.3° - - -
2/27 7:00pm 144 14 G 21 46° 100% - - 46° 47.8° 43.3° - - -
2/27 6:50pm 145 14 G 20 45° 100% - - 45° 47.8° 43.3° - - -
2/27 6:40pm 152 14 G 24 45° 100% - - 45° 47.8° 43.3° - - -
2/27 6:30pm 155 14 G 24 45° 100% - - 45° 47.8° 43.3° - - -
2/27 6:20pm 174 9 G 19 45° 100% - - 45° 47.8° 43.3° - - -
2/27 6:10pm 199 8 G 17 45° 100% - - 45° 47.8° 43.3° - - -
2/27 6:00pm 194 7 G 23 45° 100% - - 45° 47.8° 43.3° - - -
2/27 5:50pm 204 12 G 29 45° 100% - - 45° 47.8° 43.3° - - -
2/27 5:40pm 201 11 G 18 45° 100% - - 45° 47.8° 43.3° - - -
2/27 5:30pm 208 12 G 18 45° 100% - - 45° 47.8° 43.3° - - -
2/27 5:20pm 215 12 G 18 46° 100% - - 46° 47.8° 43.3° - - -
2/27 5:10pm 224 14 G 19 46° 100% - - 46° 47.8° 43.3° - - -
2/27 5:00pm 218 14 G 20 46° 100% - - 46° 47.8° 43.3° - - -
2/27 4:50pm 205 12 G 23 46° 100% - - 46° 47.8° 43.3° - - -
2/27 4:40pm 208 12 G 24 46° 100% - - 46° 47.8° 43.3° - - -
2/27 4:30pm 210 12 G 20 46° 100% - - 46° 47.8° 43.3° - - -
2/27 4:20pm 194 9 G 18 46° 100% - - 46° 47.8° 43.3° - - -
2/27 4:10pm 193 10 G 18 46° 100% - - 46° 47.8° 43.3° - - -
2/27 4:00pm 200 13 G 21 46° 100% - - 46° 47.8° 43.3° - - -
2/27 3:50pm 211 12 G 18 46° 100% - - 46° 47.8° 43.3° - - -
2/27 3:40pm 216 14 G 21 46° 100% - - 46° 47.8° 43.3° - - -
2/27 3:30pm 208 14 G 20 46° 100% - - 46° 47.8° 43.3° - - -
2/27 3:20pm 214 15 G 20 46° 100% - - 46° 47.8° 43.3° - - -
2/27 3:10pm 214 15 G 23 46° 100% - - 46° 47.8° 43.3° - - -
2/27 3:00pm 213 16 G 22 46° 100% - - 46° 47.8° 43.3° - - -
2/27 2:50pm 214 18 G 25 46° 100% - - 46° 47.8° 43.3° - - -
2/27 2:40pm 226 17 G 29 46° 100% - - 46° 47.8° 43.3° - - -
2/27 2:30pm 221 21 G 27 46° 100% - - 46° 47.8° 43.3° - - -
2/27 2:20pm 227 17 G 22 46° 100% - - 46° 47.8° 43.3° - - -
2/27 2:10pm 221 18 G 26 46° 100% - - 46° 47.8° 43.3° - - -
2/27 2:00pm 221 19 G 26 46° 100% - - 46° 47.8° 43.3° - - -
2/27 1:50pm 223 20 G 31 47° 100% - - 47° 47.8° 43.3° - - -
2/27 1:40pm 222 17 G 23 47° 100% - - 47° 47.8° 43.3° - - -
2/27 1:30pm 220 17 G 23 47° 100% - - 47° 47.8° 43.3° - - -
2/27 1:20pm 222 17 G 23 47° 100% - - 47° 47.8° 43.3° - - -
2/27 1:10pm 220 19 G 28 47° 100% - - 47° 47.8° 43.3° - - -
2/27 1:00pm 218 20 G 30 47° 100% - - 47° 47.8° 43.3° - - -
2/27 12:40pm 221 20 G 28 47° 100% - - 47° 47.8° 43.3° - - -
2/27 12:30pm 217 17 G 26 47° 100% - - 47° 47.8° 43.3° - - -
2/27 12:20pm 218 12 G 18 47° 100% - - 47° 47.8° 43.3° - - -
2/27 12:10pm 216 9 G 13 47° 100% - - 47° 47.8° 43.3° - - -
2/27 12:00pm 222 8 G 12 47° 100% - - 47° 47.8° 43.3° - - -
2/27 11:50am 240 8 G 12 47° 100% - - 47° 47.8° 43.3° - - -
2/27 11:40am 224 12 G 19 47° 100% - - 47° 47.8° 43.3° - - -
2/27 11:30am 220 16 G 25 47° 100% - - 47° 47.8° 43.3° - - -
2/27 11:20am 218 12 G 18 47° 100% - - 47° 47.8° 43.3° - - -
2/27 11:10am 221 11 G 16 47° 100% - - 47° 47.8° 43.3° - - -
2/27 11:00am 213 13 G 30 47° 100% - - 47° 47.8° 43.3° - - -
2/27 10:50am 211 13 G 19 47° 100% - - 47° 47.8° 43.3° - - -
2/27 10:40am 220 14 G 20 47° 100% - - 47° 47.8° 43.3° - - -
2/27 10:30am 220 16 G 20 47° 100% - - 47° 47.8° 43.3° - - -
2/27 10:20am 220 13 G 17 47° 100% - - 47° 47.8° 43.3° - - -
2/27 10:10am 227 14 G 19 47° 100% - - 47° 47.8° 43.3° - - -
2/27 10:00am 226 13 G 17 47° 100% - - 47° 47.8° 43.3° - - -
2/27 9:50am 222 14 G 17 47° 100% - - 47° 47.8° 43.3° - - -
2/27 9:40am 212 12 G 16 47° 100% - - 47° 47.8° 43.3° - - -
2/27 9:30am 210 13 G 21 47° 100% - - 47° 47.8° 43.3° - - -
2/27 9:20am 212 14 G 23 47° 100% - - 47° 47.8° 43.3° - - -
2/27 9:10am 214 15 G 26 47° 100% - - 47° 47.8° 43.3° - - -
2/27 9:00am 213 12 G 18 47° 100% - - 47° 47.8° 43.3° - - -
2/27 8:50am 211 12 G 19 47° 100% - - 47° 47.8° 43.3° - - -
2/27 8:40am 215 14 G 20 47° 100% - - 47° 47.8° 43.3° - - -
2/27 8:30am 216 10 G 16 47° 100% - - 47° 47.8° 43.3° - - -
2/27 8:20am 220 11 G 16 47° 100% - - 47° 47.8° 43.3° - - -
2/27 8:10am 218 12 G 16 47° 100% - - 47° 47.8° 43.3° - - -
2/27 8:00am 219 13 G 17 47° 100% - - 47° 47.8° 43.3° - - -
2/27 7:50am 209 13 G 19 47° 100% - - 47° 47.8° 43.3° - - -
2/27 7:40am 210 10 G 16 47° 100% - - 47° 47.8° 43.3° - - -
2/27 7:30am 215 9 G 12 47° 100% - - 47° 47.8° 43.3° - - -
2/27 7:20am 219 10 G 13 47° 100% - - 47° 47.8° 43.3° - - -
2/27 7:10am 221 11 G 14 47° 100% - - 47° 47.8° 43.3° - - -
2/27 7:00am 225 11 G 17 47° 100% - - 47° 47.8° 43.3° - - -
2/27 6:50am 223 11 G 14 47° 100% - - 47° 47.5° 43.3° - - -
2/27 6:40am 224 13 G 20 47° 100% - - 47° 47.5° 43.3° - - -
2/27 6:30am 224 11 G 14 47° 100% - - 47° 47.5° 43.3° - - -
2/27 6:20am 217 12 G 17 47° 100% - - 47° 47.5° 43.3° - - -
2/27 6:10am 215 12 G 16 47° 100% - - 47° 47.5° 43.3° - - -
2/27 6:00am 218 12 G 18 47° 100% - - 47° 47.5° 43.3° - - -
2/27 5:50am 210 14 G 34 47° 100% - - 47° 47.5° 43.3° - - -
2/27 5:40am 211 12 G 25 47° 100% - - 47° 47.4° 43.3° - - -
2/27 5:30am 204 13 G 29 47° 100% - - 47° 47.4° 43.3° - - -
2/27 5:20am 208 12 G 23 47° 100% - - 47° 47.2° 43.3° - - -
2/27 5:10am 200 11 G 19 47° 100% - - 47° 47.2° 43.3° - - -
2/27 5:00am 205 13 G 26 47° 100% - - 47° 47.2° 43.3° - - -
2/27 4:50am 205 13 G 29 47° 100% - - 47° 47.2° 43.3° - - -
2/27 4:40am 195 10 G 20 47° 100% - - 47° 47.2° 43.3° - - -
2/27 4:30am 199 13 G 25 46° 100% - - 46° 47.2° 43.3° - - -
2/27 4:20am 198 12 G 20 46° 100% - - 46° 47.2° 43.3° - - -
2/27 4:10am 197 15 G 26 46° 100% - - 46° 47.2° 43.3° - - -
2/27 4:00am 203 13 G 25 47° 100% - - 47° 47.2° 43.3° - - -
2/27 3:50am 202 14 G 25 46° 100% - - 46° 47° 43.3° - - -
2/27 3:40am 201 11 G 22 46° 100% - - 46° 47° 43.3° - - -
2/27 3:30am 205 12 G 19 46° 100% - - 46° 47° 43.3° - - -
2/27 3:20am 206 13 G 20 46° 100% - - 46° 47° 43.3° - - -
2/27 3:10am 199 13 G 25 46° 100% - - 46° 47° 43.3° - - -
2/27 3:00am 202 12 G 22 46° 100% - - 46° 46.8° 43.3° - - -
2/27 2:50am 207 11 G 24 46° 100% - - 46° 46.7° 43.3° - - -
2/27 2:40am 206 10 G 17 46° 100% - - 46° 46.5° 43.3° - - -
2/27 2:30am 205 10 G 17 45° 100% - - 45° 46° 43.3° - - -
2/27 2:20am 214 11 G 18 45° 100% - - 45° 45.8° 43.3° - - -
2/27 2:10am 210 11 G 16 45° 100% - - 45° 45.8° 43.3° - - -
2/27 2:00am 210 9 G 13 45° 100% - - 45° 45.6° 43.3° - - -
2/27 1:50am 207 8 G 13 45° 100% - - 45° 45.4° 43.3° - - -
2/27 1:40am 209 9 G 11 45° 100% - - 45° 45.4° 43.3° - - -
2/27 1:30am 208 10 G 13 45° 100% - - 45° 45.3° 43.3° - - -
2/27 1:20am 213 9 G 12 45° 100% - - 45° 45.3° 43.3° - - -
2/27 1:10am 213 9 G 13 45° 100% - - 45° 45.3° 43.3° - - -
2/27 1:00am 211 10 G 14 44° 100% - - 44° 45.1° 43.3° - - -
2/27 12:50am 209 11 G 17 45° 100% - - 45° 45.1° 43.3° - - -
2/27 12:40am 208 12 G 17 44° 100% - - 44° 45.1° 43.3° - - -
2/27 12:30am 210 10 G 15 44° 100% - - 44° 44.6° 43.3° - - -
2/27 12:20am 212 10 G 16 44° 100% - - 44° 44.5° 43.3° - - -
2/27 12:10am 215 11 G 15 44° 100% - - 44° 44.3° 43.3° - - -
2/27 12:00am 213 10 G 15 43° 100% - - 43° 46.3° 37.9° - - -
2/26 11:50pm 214 10 G 13 43° 100% - - 43° 46.3° 37.9° - - -
2/26 11:40pm 221 5 G 9 43° 100% - - 43° 46.3° 37.9° - - -
2/26 11:30pm 225 6 G 10 42° 100% - - 42° 46.3° 37.9° - - -
2/26 11:20pm 229 6 G 11 42° 100% - - 42° 46.3° 37.9° - - -
2/26 11:10pm 218 7 G 10 42° 100% - - 42° 46.3° 37.9° - - -
2/26 11:00pm 208 8 G 12 42° 100% - - 42° 46.3° 37.9° - - -
2/26 10:50pm 216 9 G 13 42° 94% - - 40° 46.3° 37.9° - - -
2/26 10:40pm 209 7 G 12 42° 86% - - 38° 46.3° 37.9° - - -
2/26 10:30pm 210 5 G 9 41° 94% - - 39° 46.3° 37.9° - - -
2/26 10:20pm 218 2 G 4 40° 100% - - 40° 46.3° 37.9° - - -
2/26 10:10pm 215 4 G 7 40° 100% - - 40° 46.3° 37.9° - - -
2/26 10:00pm 208 5 G 9 41° 100% - - 41° 46.3° 37.9° - - -
2/26 9:50pm 200 8 G 17 40° 100% - - 40° 46.3° 37.9° - - -
2/26 9:40pm 207 5 G 12 40° 100% - - 40° 46.3° 37.9° - - -
2/26 9:30pm 223 4 G 8 40° 100% - - 40° 46.3° 37.9° - - -
2/26 9:20pm 221 5 G 8 40° 100% - - 40° 46.3° 37.9° - - -
2/26 9:10pm 211 7 G 10 40° 100% - - 40° 46.3° 37.9° - - -
2/26 9:00pm 224 7 G 10 41° 100% - - 41° 46.3° 37.9° - - -
2/26 8:50pm 229 7 G 10 41° 100% - - 41° 46.3° 37.9° - - -
2/26 8:40pm 239 8 G 11 41° 100% - - 41° 46.3° 37.9° - - -
2/26 8:30pm 234 7 G 12 41° 100% - - 41° 46.3° 37.9° - - -
2/26 8:20pm 228 9 G 14 41° 100% - - 41° 46.3° 37.9° - - -
2/26 8:10pm 223 11 G 15 41° 100% - - 41° 46.3° 37.9° - - -
2/26 8:00pm 229 11 G 17 41° 100% - - 41° 46.3° 37.9° - - -
2/26 7:50pm 231 10 G 15 41° 100% - - 41° 46.3° 37.9° - - -
2/26 7:40pm 227 11 G 16 41° 100% - - 41° 46.3° 37.9° - - -
2/26 7:30pm 226 12 G 16 41° 100% - - 41° 46.3° 37.9° - - -
2/26 7:20pm 228 11 G 16 41° 100% - - 41° 46.3° 37.9° - - -
2/26 7:10pm 227 12 G 18 42° 100% - - 41° 46.3° 37.9° - - -
2/26 7:00pm 229 9 G 12 42° 100% - - 42° 46.3° 37.9° - - -
2/26 6:50pm 230 8 G 12 42° 100% - - 42° 46.3° 37.9° - - -
2/26 6:40pm 226 10 G 14 42° 100% - - 42° 46.3° 37.9° - - -
2/26 6:30pm 224 10 G 14 42° 100% - - 42° 46.3° 37.9° - - -
2/26 6:20pm 230 10 G 14 42° 100% - - 42° 46.3° 37.9° - - -
2/26 6:10pm 233 11 G 17 42° 100% - - 42° 46.3° 37.9° - - -
2/26 6:00pm 227 12 G 17 42° 100% - - 42° 46.3° 37.9° - - -
2/26 5:50pm 227 12 G 19 42° 100% - - 42° 46.3° 37.9° - - -
2/26 5:40pm 229 12 G 17 43° 100% - - 43° 46.3° 37.9° - - -
2/26 5:30pm 227 10 G 15 43° 100% - - 43° 46.3° 37.9° - - -
2/26 5:20pm 223 12 G 17 43° 100% - - 43° 46.3° 37.9° - - -
2/26 5:10pm 224 15 G 20 43° 100% - - 43° 46.3° 37.9° - - -
2/26 5:00pm 222 13 G 19 43° 97% - - 42° 46.3° 37.9° - - -
2/26 4:50pm 227 12 G 17 43° 90% - - 40° 46.3° 37.9° - - -